Accueil
METAR-TAF:

METAR-TAF

Aéroports :

Ranong, Thaïlande

latitude: 09-59N, longitude: 098-37E, altitude: 7 m

Observation

Le bulletin a été fait il y a 33 minutes, à 07:00 UTC
Vent 5 kt de direction variable
Température 36°C
Humidité 45%
Pression 1008 hPa
Visibilité 10 km ou plus
Nuages épars à une hauteur de 2500 ft

METAR: VTSR 130700Z VRB05KT 9999 SCT025 36/22 Q1008 NOSIG

Heure: 14:33 (07:33 UTC)

Prévision

Le bulletin a été fait il y a 2 heures et 33 minutes, à 05:00 UTC
Prévision valable du 13 à 06 UTC au 14 à 06 UTC
Vent 5 kt de ouest/nord-ouest
Visibilité 10 km ou plus
Nuages épars à une hauteur de 2000 ft
Evoluant progressivement
du 13 à 14 UTC au 13 à 16 UTC
Vent 5 kt de est

TAF: VTSR 130500Z 1306/1406 30005KT 9999 SCT020 BECMG 1314/1316 10005KT

Observations et prévisions météorologiques de plus de 4000 aéroports (messages METAR et TAF).

Les stations disponibles sont représentées par des disques jaunes et rouges sur la carte.

Passer la souris dessus pour voir le nom de la station.

Cliquer dessus pour voir les observations et prévisions météorologiques.

Pour changer de carte: cliquez sur les boutons verts avec une croix noire pour zoomer, sur le bouton vert avec un tiret pour effectuer un zoom arrière, ou sur les flèches vertes pour les cartes adjacentes.


METAR-TAF: